Tiempo atmosférico en la estación meteorológica de Llimiana, Lleida (515 m.)



Fecha
DESCASC
Temp. máxima en grados centígrados (hora)
DESCASC
Temp. mínima en grados centígrados (hora)
DESCASC
Temp. media en grados centígrados
DESCASC
Racha de viento máxima en m/sg (hora)
DESCASC
Velocidad máxima media en intervalos de 10 minutos(hora)
DESCASC
Precipitaciones diarias en mm
DESCASC
Precipitaciones de 00:00 a 06:00 en mm
DESCASC
Precipitaciones de 06:00 a 12:00 en mm
DESCASC
Precipitaciones de 12:00 a 18:00 en mm
DESCASC
Precipitaciones de 18:00 a 24:00 en mm
DESCASC
25-04-2019 17.9 (16:30) 6.7 (23:59) 12.3 17.78 (07:50) 6.39 (17:30) 6.8 1.2 5.6 0 0
24-04-2019 16 (18:00) 6.4 (05:40) 11.2 10.56 (22:40) 5.28 (22:40) 6.6 6.2 0 0 0.4
23-04-2019 18.7 (16:10) 9.9 (23:30) 14.3 18.33 (19:40) 6.67 (19:20) 7.4 0 1.6 0.2 5.6
22-04-2019 17.9 (16:10) 7.3 (00:00) 12.6 8.61 (18:10) 5 (18:10) 3.4 0 3.4 0 0
21-04-2019 14.7 (17:40) 7.8 (00:00) 11.3 6.67 (00:10) 3.61 (00:20) 5.6 5.4 0.2 0 0
20-04-2019 20.9 (13:40) 5.4 (00:00) 13.1 11.94 (15:10) 6.67 (15:50) 0.2 0 0 0 0.2
19-04-2019 20.4 (17:00) 9.7 (00:00) 15 13.61 (19:20) 7.22 (17:50) 0 0 0 0 0
18-04-2019 19.4 (14:40) 8.1 (00:00) 13.8 12.5 (17:30) 5.83 (23:40) 0 0 0 0 0
17-04-2019 22.7 (16:50) 4.8 (00:00) 13.8 6.67 (17:30) 3.89 (17:30) 0 0 0 0 0
16-04-2019 20.3 (17:10) 7 (00:00) 13.6 8.06 (21:10) 4.72 (17:40) 2.6 2.6 0 0 0
15-04-2019 20.1 (14:50) 6.9 (00:00) 13.5 10 (12:20) 5.56 (12:10) 2.6 0 0 0 2.6
14-04-2019 23.4 (15:20) 2.3 (00:00) 12.8 8.89 (14:20) 5 (14:00) 0 0 0 0 0
13-04-2019 22.6 (17:20) -0.3 (00:00) 11.2 9.44 (16:00) 5.83 (16:50) 0 0 0 0 0
12-04-2019 21.7 (16:50) 1.9 (00:00) 11.8 8.61 (18:00) 4.72 (18:30) 0 0 0 0 0
11-04-2019 18.1 (16:00) 1.1 (00:00) 9.6 6.67 (14:10) 3.61 (18:10) 0 0 0 0 0
10-04-2019 15.9 (14:10) 5 (00:00) 10.4 8.89 (16:20) 5 (16:20) 0.2 0 0.2 0 0
09-04-2019 19.2 (14:10) 7.3 (00:00) 13.3 11.11 (15:00) 5.56 (14:00) 5.6 0 0 0 5.6
08-04-2019 19.8 (17:30) 3.2 (00:00) 11.5 8.89 (16:20) 5.83 (16:20) 0 0 0 0 0
07-04-2019 16.3 (16:20) 2.7 (00:00) 9.5 9.17 (19:00) 5.56 (19:00) 0.6 0.6 0 0 0
06-04-2019 11.5 (15:00) 4.4 (00:00) 8 7.78 (15:40) 3.89 (18:30) 14.6 8 2.2 0.4 4
05-04-2019 13.6 (14:50) 1.3 (00:00) 7.5 11.67 (20:20) 4.72 (20:20) 5 0 0.4 0.2 4.4
04-04-2019 15.4 (15:40) -1.9 (-00:0) 6.7 8.06 (17:40) 4.72 (17:50) 0 0 0 0 0
03-04-2019 12.5 (12:40) 5.4 (00:00) 9 10.28 (20:40) 5.56 (18:50) 0.2 0 0 0.2 0
02-04-2019 21 (18:00) 6.7 (00:00) 13.8 11.67 (18:40) 6.94 (18:40) 0.4 0 0 0.4 0
01-04-2019 19.8 (14:50) 7.6 (00:00) 13.7 10.56 (16:10) 6.67 (16:10) 0 0 0 0 0
31-03-2019 15.5 (18:00) 1.6 (00:00) 8.6 7.78 (15:30) 5 (15:30) 0 0 0 0 0
30-03-2019 19.3 (15:00) 1.1 (00:00) 10.2 9.72 (20:50) 4.72 (20:50) 0 0 0 0 0
29-03-2019 18.8 (15:20) 2.8 (00:00) 10.8 6.67 (19:50) 3.61 (12:40) 0 0 0 0 0
28-03-2019 18.3 (14:40) 0.3 (00:00) 9.3 10.83 (15:10) 6.67 (15:20) 0 0 0 0 0
27-03-2019 19 (17:00) -1.3 (-00:0) 8.9 11.39 (15:40) 6.39 (15:10) 0 0 0 0 0

Gráficas

Temp. máximas Temp. mínimas Temp. medias Precipitaciones Rachas de viento máximas Velocidades máximas media en intervalos de 10 minutos

Datos horarios

Fecha y hora oficial Temperatura (ºC) Velocidad del viento (km/h) Dirección del viento Racha (km/h) Dirección de racha Precipitación (mm) Presión (hPa) Tendencia (hPa) Humedad (%)
2019-04-25 23:00:00 7.5 4 Nordeste 7 Este 0 -- -- 73
2019-04-25 22:00:00 8.2 3 Norte 5 Norte 0 -- -- 69
2019-04-25 21:00:00 11.5 4 Norte 12 Norte 0 -- -- 53
2019-04-25 20:00:00 13.6 3 Noroeste 11 Oeste 0 -- -- 48
2019-04-25 19:00:00 14.1 8 Oeste 34 Oeste 0 -- -- 45
2019-04-25 18:00:00 15 18 Noroeste 51 Oeste 0 -- -- 45
2019-04-25 17:00:00 16.3 11 Oeste 38 Sudoeste 0 -- -- 37
2019-04-25 16:00:00 17.4 15 Sur 31 Sur 0 -- -- 37
2019-04-25 15:00:00 16.4 9 Este 25 Sur 0 -- -- 40
2019-04-25 14:00:00 14.2 11 Sur 25 Sudoeste 0 -- -- 52
2019-04-25 13:00:00 15.2 11 Sudoeste 23 Sudoeste 0 -- -- 56
2019-04-25 12:00:00 14.1 8 Sudoeste 25 Sur 0 -- -- 70
2019-04-25 11:00:00 11.4 11 Sur 26 Sur 0.4 -- -- 76
2019-04-25 10:00:00 11.3 12 Sur 23 Sur 0.6 -- -- 80
2019-04-25 09:00:00 11.2 9 Sudoeste 33 Sudoeste 1.4 -- -- 85
2019-04-25 08:00:00 11.8 8 Oeste 64 Sur 2.4 -- -- 79
2019-04-25 07:00:00 12.4 18 Sur 51 Sur 0.8 -- -- 72
2019-04-25 06:00:00 13.4 15 Sur 61 Sudeste 0.2 -- -- 62
2019-04-25 05:00:00 11.2 5 Norte 23 Sur 0 -- -- 74
2019-04-25 04:00:00 10.6 5 Sudeste 20 Norte 0 -- -- 78
2019-04-25 03:00:00 10.5 9 Norte 19 Nordeste 0.2 -- -- 76
2019-04-25 02:00:00 10.9 10 Sudoeste 41 Sudeste 0.2 -- -- 71
2019-04-25 01:00:00 10.6 6 Norte 38 Sudeste 0.6 -- -- 71
2019-04-25 00:00:00 11.2 8 Sur 26 Este 0.4 -- -- 62
2019-04-24 23:00:00 12.2 13 Sudeste 38 Sudeste 0 -- -- 53
2019-04-24 22:00:00 12.1 11 Sur 28 Sur 0 -- -- 54
2019-04-24 21:00:00 11.5 8 Sur 22 Sudeste 0 -- -- 56
2019-04-24 20:00:00 14.1 0 Calma 15 Norte 0 -- -- 51
2019-04-24 19:00:00 15.1 10 Norte 18 Norte 0 -- -- 47
2019-04-24 18:00:00 16 8 Norte 16 Norte 0 -- -- 46
2019-04-24 17:00:00 15.7 7 Oeste 18 Oeste 0 -- -- 49
2019-04-24 16:00:00 14 12 Oeste 31 Oeste 0 -- -- 52
2019-04-24 15:00:00 12.3 12 Sudoeste 33 Sudoeste 0 -- -- 54
2019-04-24 14:00:00 12.8 13 Sudoeste 29 Sudoeste 0 -- -- 45
2019-04-24 13:00:00 13 11 Oeste 29 Sur 0 -- -- 54
2019-04-24 12:00:00 11.6 6 Sudoeste 21 Sudoeste 0 -- -- 58
2019-04-24 11:00:00 11.1 10 Sur 22 Sudoeste 0 -- -- 62
2019-04-24 10:00:00 9 10 Sudoeste 19 Sur 0 -- -- 72
2019-04-24 09:00:00 7.9 7 Sudoeste 18 Sur 0 -- -- 81
2019-04-24 08:00:00 7 3 Sudeste 7 Sudeste 0 -- -- 87
2019-04-24 07:00:00 6.9 3 Este 8 Sur 0 -- -- 84
2019-04-24 06:00:00 6.6 3 Sudeste 14 Sudeste 0 -- -- 85
2019-04-24 05:00:00 7.1 3 Sudeste 15 Sur 0 -- -- 87
2019-04-24 04:00:00 8.2 6 Sur 15 Sudoeste 0.2 -- -- 82
2019-04-24 03:00:00 8.7 3 Sudeste 10 Este 0.2 -- -- 87
2019-04-24 02:00:00 9.2 0 Calma 22 Sudoeste 0.2 -- -- 87
2019-04-24 01:00:00 9.6 8 Sur 17 Sudoeste 5.6 -- -- 89
2019-04-24 00:00:00 9.9 4 Norte 8 Este 0 -- -- 87
2019-04-23 23:00:00 10.2 7 Este 10 Este 0 -- -- 87
2019-04-23 22:00:00 10.5 2 Este 12 Noroeste 1.8 -- -- 84
2019-04-23 21:00:00 11.2 9 Oeste 28 Sur 3.2 -- -- 77
2019-04-23 20:00:00 15.4 13 Sur 66 Sudeste 0.6 -- -- 59
2019-04-23 19:00:00 16.1 19 Sudeste 51 Sudeste 0 -- -- 49
2019-04-23 18:00:00 16.6 5 Sudeste 9 Este 0 -- -- 58
2019-04-23 17:00:00 17 6 Sudoeste 18 Noroeste 0 -- -- 58
2019-04-23 16:00:00 18.6 9 Oeste 15 Oeste 0 -- -- 61
2019-04-23 15:00:00 15.9 6 Oeste 14 Noroeste 0 -- -- 67
2019-04-23 14:00:00 14.6 6 Noroeste 14 Noroeste 0 -- -- 81
2019-04-23 13:00:00 12 4 Noroeste 8 Noroeste 0.2 -- -- 89
2019-04-23 12:00:00 11.7 0 Calma 5 Oeste 0.8 -- -- 84
2019-04-23 11:00:00 11.7 2 Sudoeste 4 Oeste 0.8 -- -- 84
2019-04-23 10:00:00 11.8 3 Oeste 6 Sudeste 0 -- -- 80
2019-04-23 09:00:00 11.2 2 Norte 5 Sudeste 0 -- -- 81
2019-04-23 08:00:00 10.8 4 Sudeste 7 Este 0 -- -- 78
2019-04-23 07:00:00 10.7 2 Sudeste 4 Sudeste 0 -- -- 80
2019-04-23 06:00:00 11.2 2 Norte 4 Nordeste 0 -- -- 75
2019-04-23 05:00:00 11.3 3 Norte 9 Este 0 -- -- 75
2019-04-23 04:00:00 11.6 4 Sudeste 10 Este 0 -- -- 70
2019-04-23 03:00:00 11.6 4 Este 8 Sudeste 0 -- -- 72
2019-04-23 02:00:00 12 2 Este 6 Este 0 -- -- 71
2019-04-23 01:00:00 12.7 3 Noroeste 7 Oeste 0 -- -- 62
2019-04-23 00:00:00 13.3 4 Sudeste 19 Sudoeste 0 -- -- 59
2019-04-22 23:00:00 13 4 Sudeste 10 Este 0 -- -- 61
2019-04-22 22:00:00 13.7 6 Oeste 22 Sudoeste 0 -- -- 57
2019-04-22 21:00:00 14.1 8 Sudoeste 28 Sudoeste 0 -- -- 56
2019-04-22 20:00:00 14.5 13 Sudoeste 24 Sudoeste 0 -- -- 53
2019-04-22 19:00:00 14.8 13 Sudoeste 31 Sudoeste 0 -- -- 53
2019-04-22 18:00:00 15.5 15 Sudoeste 27 Sudoeste 0 -- -- 49
2019-04-22 17:00:00 17.3 9 Sudoeste 24 Sudoeste 0 -- -- 46
2019-04-22 16:00:00 17.7 13 Sudoeste 23 Sudoeste 0 -- -- 45
2019-04-22 15:00:00 17.5 2 Norte 9 Sur 0 -- -- 48
2019-04-22 14:00:00 16.4 4 Noroeste 10 Noroeste 0 -- -- 63
2019-04-22 13:00:00 14 4 Oeste 13 Sudeste 0 -- -- 80
2019-04-22 12:00:00 10.7 6 Sur 10 Sur 0.4 -- -- 91
2019-04-22 11:00:00 9.4 3 Oeste 7 Oeste 2.4 -- -- 89
2019-04-22 10:00:00 9.6 0 Calma 10 Norte 0 -- -- 89
2019-04-22 09:00:00 8.6 4 Noroeste 8 Norte 0 -- -- 91
2019-04-22 08:00:00 7.7 4 Este 9 Este 0.6 -- -- 90
2019-04-22 07:00:00 8 3 Nordeste 9 Norte 0 -- -- 89
2019-04-22 06:00:00 7.6 2 Sudeste 7 Sudeste 0 -- -- 89
2019-04-22 05:00:00 7.4 3 Norte 6 Noroeste 0 -- -- 88
2019-04-22 04:00:00 7.7 0 Calma 6 Norte 0 -- -- 85
2019-04-22 03:00:00 8.5 0 Calma 4 Noroeste 0 -- -- 82
2019-04-22 02:00:00 9 4 Nordeste 6 Nordeste 0 -- -- 81
2019-04-22 01:00:00 9.3 3 Este 6 Este 0 -- -- 79
2019-04-22 00:00:00 10.5 3 Este 8 Este 0 -- -- 76
2019-04-21 23:00:00 10.6 3 Este 8 Este 0 -- -- 74
2019-04-21 22:00:00 11.4 3 Este 8 Este 0 -- -- 69
2019-04-21 21:00:00 12.4 7 Este 9 Este 0 -- -- 65
2019-04-21 20:00:00 13.6 0 Calma 5 Este 0 -- -- 68
2019-04-21 19:00:00 14.5 0 Calma 3 Sudoeste 0 -- -- 62
2019-04-21 18:00:00 14.6 0 Calma 10 Oeste 0 -- -- 59
2019-04-21 17:00:00 14.6 4 Oeste 9 Norte 0 -- -- 61
2019-04-21 16:00:00 13.9 0 Calma 5 Sur 0 -- -- 63
2019-04-21 15:00:00 13.6 3 Oeste 9 Oeste 0 -- -- 67
2019-04-21 14:00:00 12.7 3 Noroeste 7 Sudoeste 0 -- -- 70
2019-04-21 13:00:00 11.9 3 Este 8 Oeste 0 -- -- 66
2019-04-21 12:00:00 11.4 3 Noroeste 8 Noroeste 0 -- -- 79
2019-04-21 11:00:00 9.5 9 Este 15 Este 0 -- -- 81
2019-04-21 10:00:00 9.1 0 Calma 8 Sudeste 0 -- -- 88
2019-04-21 09:00:00 8.3 0 Calma 4 Sur 0 -- -- 89
2019-04-21 08:00:00 7.8 0 Calma 4 Oeste 0.2 -- -- 89
2019-04-21 07:00:00 7.8 0 Calma 7 Oeste 0 -- -- 89
2019-04-21 06:00:00 7.9 2 Nordeste 7 Este 0.2 -- -- 87
2019-04-21 05:00:00 7.9 5 Este 10 Sudeste 0.2 -- -- 85
2019-04-21 04:00:00 8.1 3 Nordeste 9 Nordeste 0.2 -- -- 87
2019-04-21 03:00:00 8.1 4 Nordeste 9 Norte 0.8 -- -- 83
2019-04-21 02:00:00 8.5 3 Norte 6 Norte 1.8 -- -- 81
2019-04-21 01:00:00 8.7 3 Oeste 24 Sudeste 2.2 -- -- 79
2019-04-21 00:00:00 9.8 20 Este 42 Sudeste 0.2 -- -- 63
2019-04-20 23:00:00 12.1 17 Sudeste 35 Este 0 -- -- 46
2019-04-20 22:00:00 13.7 18 Este 30 Este 0 -- -- 36
2019-04-20 21:00:00 14.8 19 Este 32 Sudeste 0 -- -- 36
2019-04-20 20:00:00 15.6 18 Sudeste 36 Este 0 -- -- 31
2019-04-20 19:00:00 16.1 20 Este 40 Este 0 -- -- 33
2019-04-20 18:00:00 17 22 Este 36 Este 0 -- -- 31
2019-04-20 17:00:00 17.5 21 Este 37 Este 0 -- -- 31
2019-04-20 16:00:00 17.7 23 Este 43 Este 0 -- -- 30
2019-04-20 15:00:00 18.8 20 Este 39 Este 0 -- -- 27
2019-04-20 14:00:00 19.9 16 Sudeste 35 Este 0 -- -- 26
2019-04-20 13:00:00 19.6 5 Oeste 11 Oeste 0 -- -- 27
2019-04-20 12:00:00 17.6 3 Noroeste 10 Oeste 0 -- -- 33
2019-04-20 11:00:00 12.7 3 Sur 9 Noroeste 0 -- -- 57
2019-04-20 10:00:00 11.6 4 Norte 7 Norte 0 -- -- 57
2019-04-20 09:00:00 8.1 2 Oeste 4 Oeste 0 -- -- 65
2019-04-20 08:00:00 6.1 0 Calma 3 Este 0 -- -- 70
2019-04-20 07:00:00 5.6 0 Calma 4 Nordeste 0 -- -- 67
2019-04-20 06:00:00 5.9 0 Calma 3 Este 0 -- -- 64
2019-04-20 05:00:00 6.8 2 Este 4 Este 0 -- -- 59
2019-04-20 04:00:00 7.5 0 Calma 4 Sudeste 0 -- -- 57
2019-04-20 03:00:00 8.4 0 Calma 6 Norte 0 -- -- 52
2019-04-20 02:00:00 9.8 3 Este 8 Este 0 -- -- 45
2019-04-20 01:00:00 10.6 4 Este 7 Nordeste 0 -- -- 42
2019-04-20 00:00:00 11.7 0 Calma 9 Sur 0 -- -- 39
2019-04-19 23:00:00 14.7 4 Este 21 Este 0 -- -- 28
2019-04-19 22:00:00 16.3 17 Este 35 Este 0 -- -- 23
2019-04-19 21:00:00 17.2 18 Este 48 Este 0 -- -- 22
2019-04-19 20:00:00 18.4 21 Sudeste 49 Este 0 -- -- 22
2019-04-19 19:00:00 19.4 23 Este 42 Este 0 -- -- 21
2019-04-19 18:00:00 20.3 22 Este 46 Este 0 -- -- 23
2019-04-19 17:00:00 20.4 18 Este 41 Sudeste 0 -- -- 23
2019-04-19 16:00:00 20.3 18 Sudeste 38 Sudeste 0 -- -- 22
2019-04-19 15:00:00 19.6 16 Sudeste 35 Este 0 -- -- 22
2019-04-19 14:00:00 19 17 Sudeste 30 Este 0 -- -- 24
2019-04-19 13:00:00 18.9 8 Nordeste 18 Este 0 -- -- 25
2019-04-19 12:00:00 17.9 3 Noroeste 15 Norte 0 -- -- 33
2019-04-19 11:00:00 16 9 Nordeste 23 Nordeste 0 -- -- 33
2019-04-19 10:00:00 12.4 6 Norte 16 Norte 0 -- -- 49
2019-04-19 09:00:00 10.6 5 Norte 17 Nordeste 0 -- -- 51
2019-04-19 08:00:00 9.8 0 Calma 8 Sudeste 0 -- -- 56
2019-04-19 07:00:00 10.3 4 Sudeste 10 Sudoeste 0 -- -- 52
2019-04-19 06:00:00 13.2 3 Oeste 27 Noroeste 0 -- -- 39
2019-04-19 05:00:00 13.6 11 Nordeste 26 Este 0 -- -- 35
2019-04-19 04:00:00 14.4 6 Sudeste 24 Este 0 -- -- 33
2019-04-19 03:00:00 14.8 8 Nordeste 33 Sur 0 -- -- 33
2019-04-19 02:00:00 15.6 8 Sur 36 Este 0 -- -- 27
2019-04-19 01:00:00 15.2 7 Sudeste 31 Este 0 -- -- 27
2019-04-19 00:00:00 14.9 17 Nordeste 38 Nordeste 0 -- -- 27
2019-04-18 23:00:00 16.5 7 Norte 32 Este 0 -- -- 23
2019-04-18 22:00:00 16.9 13 Nordeste 25 Este 0 -- -- 24
2019-04-18 21:00:00 16.8 12 Este 27 Este 0 -- -- 26
2019-04-18 20:00:00 16.7 13 Nordeste 25 Nordeste 0 -- -- 31
2019-04-18 19:00:00 17.5 10 Este 27 Nordeste 0 -- -- 30
2019-04-18 18:00:00 17.6 11 Norte 45 Nordeste 0 -- -- 35
2019-04-18 17:00:00 18.4 9 Norte 28 Este 0 -- -- 30
2019-04-18 16:00:00 18.7 10 Este 32 Este 0 -- -- 29
2019-04-18 15:00:00 18.8 15 Sudeste 35 Sudeste 0 -- -- 34
2019-04-18 14:00:00 17.2 8 Noroeste 22 Este 0 -- -- 46
2019-04-18 13:00:00 15.9 5 Sudeste 15 Sudeste 0 -- -- 46
2019-04-18 12:00:00 14 3 Noroeste 15 Norte 0 -- -- 55
2019-04-18 11:00:00 14 6 Norte 11 Oeste 0 -- -- 63
2019-04-18 10:00:00 11.3 2 Sudoeste 5 Oeste 0 -- -- 76
2019-04-18 09:00:00 9.6 2 Oeste 6 Norte 0 -- -- 81
2019-04-18 08:00:00 8.9 6 Este 9 Este 0 -- -- 82
2019-04-18 07:00:00 8.4 4 Este 7 Este 0 -- -- 85
2019-04-18 06:00:00 8.1 3 Sudeste 5 Nordeste 0 -- -- 82
2019-04-18 05:00:00 8.8 0 Calma 10 Este 0 -- -- 79
2019-04-18 04:00:00 9.9 2 Norte 12 Sudeste 0 -- -- 76
2019-04-18 03:00:00 11 5 Sudeste 14 Este 0 -- -- 72
2019-04-18 02:00:00 10.6 0 Calma 7 Norte 0 -- -- 74
2019-04-18 01:00:00 12 2 Norte 10 Sudeste 0 -- -- 67
2019-04-18 00:00:00 12.9 3 Sur 15 Sudeste 0 -- -- 62
2019-04-17 23:00:00 13.7 7 Sudeste 15 Sur 0 -- -- 58
2019-04-17 22:00:00 14.7 9 Sudeste 24 Este 0 -- -- 53
2019-04-17 21:00:00 15.8 7 Sudeste 17 Sur 0 -- -- 50
2019-04-17 20:00:00 17.6 6 Sudeste 20 Sudeste 0 -- -- 45
2019-04-17 19:00:00 20.4 8 Sudoeste 22 Sur 0 -- -- 38
2019-04-17 18:00:00 21.6 6 Sudoeste 24 Oeste 0 -- -- 32
2019-04-17 17:00:00 22.4 8 Sudoeste 20 Sudoeste 0 -- -- 30
2019-04-17 16:00:00 21.1 6 Oeste 14 Oeste 0 -- -- 33
2019-04-17 15:00:00 20.2 8 Oeste 21 Oeste 0 -- -- 33
2019-04-17 14:00:00 19.1 10 Oeste 20 Sudoeste 0 -- -- 37
2019-04-17 13:00:00 17.4 3 Sudoeste 12 Oeste 0 -- -- 45
2019-04-17 12:00:00 16.5 0 Calma 8 Oeste 0 -- -- 48
2019-04-17 11:00:00 13.9 4 Oeste 8 Oeste 0 -- -- 60
2019-04-17 10:00:00 10.8 0 Calma 11 Norte 0 -- -- 67
2019-04-17 09:00:00 7.7 0 Calma 6 Sur 0 -- -- 89
2019-04-17 08:00:00 4.8 2 Noroeste 4 Oeste 0 -- -- 87
2019-04-17 07:00:00 5.1 0 Calma 3 Norte 0 -- -- 84
2019-04-17 06:00:00 5.8 0 Calma 5 Este 0 -- -- 82
2019-04-17 05:00:00 6.1 0 Calma 6 Este 0 -- -- 81
2019-04-17 04:00:00 6.7 4 Este 6 Este 0 -- -- 81
2019-04-17 03:00:00 7.4 0 Calma 6 Este 0 -- -- 77
2019-04-17 02:00:00 8 3 Este 6 Este 0 -- -- 75
2019-04-17 01:00:00 9.1 4 Este 6 Este 0 -- -- 68
2019-04-17 00:00:00 10.7 4 Nordeste 12 Sudoeste 0 -- -- 63
2019-04-16 23:00:00 11.7 6 Sudeste 26 Oeste 0 -- -- 57
2019-04-16 22:00:00 13.3 14 Sudoeste 29 Sudoeste 0 -- -- 51
2019-04-16 21:00:00 14.4 14 Sudoeste 27 Sudoeste 0 -- -- 51
2019-04-16 20:00:00 15.9 8 Sur 27 Sudoeste 0 -- -- 45
2019-04-16 19:00:00 17.3 16 Sudoeste 28 Sudoeste 0 -- -- 43
2019-04-16 18:00:00 19 13 Sudoeste 27 Oeste 0 -- -- 41
2019-04-16 17:00:00 20.1 13 Oeste 23 Sur 0 -- -- 40
2019-04-16 16:00:00 19.8 10 Sudoeste 26 Oeste 0 -- -- 40
2019-04-16 15:00:00 18 5 Este 14 Este 0 -- -- 49
2019-04-16 14:00:00 15.7 5 Sudeste 12 Sudeste 0 -- -- 58
2019-04-16 13:00:00 14 2 Oeste 9 Oeste 0 -- -- 64
2019-04-16 12:00:00 12.5 4 Noroeste 13 Norte 0 -- -- 67
2019-04-16 11:00:00 11.7 2 Oeste 6 Norte 0 -- -- 73
2019-04-16 10:00:00 10.1 5 Oeste 9 Oeste 0 -- -- 82
2019-04-16 09:00:00 8.4 2 Norte 9 Norte 0 -- -- 91
2019-04-16 08:00:00 7.9 5 Nordeste 14 Sudeste 0 -- -- 91
2019-04-16 07:00:00 7.4 3 Noroeste 13 Sudeste 0 -- -- 91
2019-04-16 06:00:00 7.2 0 Calma 8 Noroeste 0 -- -- 90
2019-04-16 05:00:00 7.1 3 Sudeste 9 Este 0 -- -- 88
2019-04-16 04:00:00 7.2 2 Este 8 Este 0 -- -- 88
2019-04-16 03:00:00 7.5 0 Calma 18 Este 0 -- -- 85
2019-04-16 02:00:00 8.2 5 Este 17 Norte 0.2 -- -- 84
2019-04-16 01:00:00 8.8 10 Este 21 Este 2.4 -- -- 79
2019-04-16 00:00:00 9.3 10 Noroeste 33 Este 1.4 -- -- 77
2019-04-15 23:00:00 10.2 18 Este 31 Sudeste 0.2 -- -- 59
2019-04-15 22:00:00 12.4 9 Este 28 Este 1 -- -- 56
2019-04-15 21:00:00 13.5 5 Sur 17 Sudeste 0 -- -- 39
2019-04-15 20:00:00 15.5 6 Sur 26 Sur 0 -- -- 37
2019-04-15 19:00:00 16.6 9 Sur 25 Sudoeste 0 -- -- 38
2019-04-15 18:00:00 19.4 14 Sudoeste 27 Oeste 0 -- -- 35
2019-04-15 17:00:00 19.1 14 Sudoeste 36 Oeste 0 -- -- 41
2019-04-15 16:00:00 19.9 13 Sudoeste 27 Sudoeste 0 -- -- 38
2019-04-15 15:00:00 19.7 17 Sudoeste 31 Sudoeste 0 -- -- 39
2019-04-15 14:00:00 18.7 15 Sudoeste 29 Oeste 0 -- -- 40
2019-04-15 13:00:00 18 14 Sudoeste 36 Sudoeste 0 -- -- 39
2019-04-15 12:00:00 16.6 17 Sudoeste 32 Sudoeste 0 -- -- 43
2019-04-15 11:00:00 15.3 5 Oeste 14 Oeste 0 -- -- 54
2019-04-15 10:00:00 12.7 0 Calma 5 Oeste 0 -- -- 65
2019-04-15 09:00:00 9.9 3 Norte 6 Norte 0 -- -- 78
2019-04-15 08:00:00 7.4 2 Sur 9 Sudeste 0 -- -- 81
2019-04-15 07:00:00 7.7 0 Calma 18 Sudoeste 0 -- -- 75
2019-04-15 06:00:00 9.1 3 Sur 9 Sur 0 -- -- 73
2019-04-15 05:00:00 9.5 2 Nordeste 8 Este 0 -- -- 72
2019-04-15 04:00:00 9.3 0 Calma 9 Sudoeste 0 -- -- 72
2019-04-15 03:00:00 10.7 2 Este 10 Nordeste 0 -- -- 67
2019-04-15 02:00:00 11.1 3 Nordeste 10 Este 0 -- -- 64
2019-04-15 01:00:00 11.2 0 Calma 9 Norte 0 -- -- 62
2019-04-15 00:00:00 13.5 9 Norte 13 Norte 0 -- -- 55
2019-04-14 23:00:00 13.8 0 Calma 10 Norte 0 -- -- 53
2019-04-14 22:00:00 15.1 8 Norte 12 Norte 0 -- -- 51
2019-04-14 21:00:00 16.9 6 Este 9 Este 0 -- -- 46
2019-04-14 20:00:00 21 0 Calma 7 Oeste 0 -- -- 39
2019-04-14 19:00:00 21.1 0 Calma 13 Este 0 -- -- 40
2019-04-14 18:00:00 21.1 8 Este 18 Este 0 -- -- 35
2019-04-14 17:00:00 21.4 7 Sur 26 Sur 0 -- -- 33
2019-04-14 16:00:00 22.6 5 Sur 28 Sudoeste 0 -- -- 28
2019-04-14 15:00:00 22.9 9 Sudoeste 32 Sudoeste 0 -- -- 24
2019-04-14 14:00:00 21.4 18 Sudoeste 31 Sur 0 -- -- 21
2019-04-14 13:00:00 19.9 5 Sur 14 Sudoeste 0 -- -- 21
2019-04-14 12:00:00 16.4 6 Noroeste 13 Noroeste 0 -- -- 28
2019-04-14 11:00:00 12.5 3 Oeste 8 Oeste 0 -- -- 39
2019-04-14 10:00:00 8.8 3 Sudoeste 5 Sur 0 -- -- 49
2019-04-14 09:00:00 4 0 Calma 4 Norte 0 -- -- 70
2019-04-14 08:00:00 2.7 2 Noroeste 5 Este 0 -- -- 68
2019-04-14 07:00:00 2.9 0 Calma 2 Oeste 0 -- -- 61
2019-04-14 06:00:00 4 2 Este 5 Este 0 -- -- 53
2019-04-14 05:00:00 3.8 0 Calma 8 Sudeste 0 -- -- 54
2019-04-14 04:00:00 4.5 0 Calma 10 Norte 0 -- -- 51
2019-04-14 03:00:00 6.6 2 Nordeste 9 Este 0 -- -- 40
2019-04-14 02:00:00 7.4 4 Este 6 Este 0 -- -- 38
2019-04-14 01:00:00 9.1 4 Nordeste 8 Este 0 -- -- 34
2019-04-14 00:00:00 9.5 0 Calma 4 Nordeste 0 -- -- 33
2019-04-13 23:00:00 11.3 0 Calma 13 Sudeste 0 -- -- 28
2019-04-13 22:00:00 13.4 4 Sudeste 10 Sur 0 -- -- 21
2019-04-13 21:00:00 15.3 7 Sudeste 23 Oeste 0 -- -- 19
2019-04-13 20:00:00 19 15 Oeste 33 Oeste 0 -- -- 15
2019-04-13 19:00:00 21.2 18 Oeste 32 Oeste 0 -- -- 10
2019-04-13 18:00:00 21.8 18 Sudoeste 30 Sudoeste 0 -- -- 15
2019-04-13 17:00:00 21.5 13 Sur 34 Sudoeste 0 -- -- 14
2019-04-13 16:00:00 21.2 17 Sudoeste 34 Sudoeste 0 -- -- 24
2019-04-13 15:00:00 20.8 17 Sudoeste 29 Sur 0 -- -- 24
2019-04-13 14:00:00 20.8 12 Sudoeste 25 Sudoeste 0 -- -- 18
2019-04-13 13:00:00 17.9 4 Oeste 9 Sur 0 -- -- 17
2019-04-13 12:00:00 13.9 3 Oeste 9 Sudoeste 0 -- -- 28
2019-04-13 11:00:00 10.3 4 Noroeste 9 Noroeste 0 -- -- 36
2019-04-13 10:00:00 6.9 3 Noroeste 6 Oeste 0 -- -- 42
2019-04-13 09:00:00 2.6 0 Calma 4 Sudeste 0 -- -- 64
2019-04-13 08:00:00 -0.3 0 Calma 3 Este 0 -- -- 67
2019-04-13 07:00:00 0.9 0 Calma 3 Noroeste 0 -- -- 59
2019-04-13 06:00:00 1.3 0 Calma 4 Sudeste 0 -- -- 57
2019-04-13 05:00:00 1.6 0 Calma 4 Este 0 -- -- 56
2019-04-13 04:00:00 3.7 0 Calma 8 Este 0 -- -- 46
2019-04-13 03:00:00 5.5 3 Este 9 Este 0 -- -- 39
2019-04-13 02:00:00 6.5 4 Nordeste 9 Este 0 -- -- 35
2019-04-13 01:00:00 7.8 6 Nordeste 12 Este 0 -- -- 32
2019-04-13 00:00:00 8.5 6 Este 11 Este 0 -- -- 33
2019-04-12 23:00:00 9.6 5 Nordeste 12 Este 0 -- -- 28
2019-04-12 22:00:00 10.6 9 Este 14 Este 0 -- -- 23
2019-04-12 21:00:00 13.2 3 Nordeste 18 Norte 0 -- -- 19
2019-04-12 20:00:00 17.9 9 Norte 24 Norte 0 -- -- 12
2019-04-12 19:00:00 19.2 10 Nordeste 29 Norte 0 -- -- 8
2019-04-12 18:00:00 21 14 Norte 31 Norte 0 -- -- 7
2019-04-12 17:00:00 21.7 11 Norte 23 Norte 0 -- -- 9
2019-04-12 16:00:00 21.3 11 Oeste 20 Noroeste 0 -- -- 11
2019-04-12 15:00:00 20.2 7 Norte 15 Noroeste 0 -- -- 15
2019-04-12 14:00:00 19.5 4 Oeste 13 Norte 0 -- -- 22
2019-04-12 13:00:00 17.9 6 Noroeste 16 Noroeste 0 -- -- 17
2019-04-12 12:00:00 16 5 Noroeste 12 Oeste 0 -- -- 23
2019-04-12 11:00:00 11.5 3 Oeste 9 Noroeste 0 -- -- 55
2019-04-12 10:00:00 8 3 Oeste 5 Oeste 0 -- -- 64
2019-04-12 09:00:00 4.2 0 Calma 4 Norte 0 -- -- 82
2019-04-12 08:00:00 2.1 0 Calma 4 Oeste 0 -- -- 80
2019-04-12 07:00:00 2.7 0 Calma 5 Norte 0 -- -- 76
2019-04-12 06:00:00 4 0 Calma 8 Este 0 -- -- 71
2019-04-12 05:00:00 3.9 5 Sudeste 10 Noroeste 0 -- -- 72
2019-04-12 04:00:00 5 5 Norte 7 Este 0 -- -- 67
2019-04-12 03:00:00 6.3 3 Nordeste 10 Oeste 0 -- -- 59
2019-04-12 02:00:00 7.7 6 Nordeste 11 Nordeste 0 -- -- 55
2019-04-12 01:00:00 7.7 6 Este 11 Este 0 -- -- 54
2019-04-12 00:00:00 8.4 8 Este 12 Este 0 -- -- 50
2019-04-11 23:00:00 8.8 4 Este 9 Nordeste 0 -- -- 50
2019-04-11 22:00:00 9.7 0 Calma 9 Nordeste 0 -- -- 48
2019-04-11 21:00:00 11.3 6 Nordeste 10 Nordeste 0 -- -- 40
2019-04-11 20:00:00 13.6 5 Nordeste 14 Norte 0 -- -- 32
2019-04-11 19:00:00 15.5 4 Noroeste 21 Oeste 0 -- -- 27
2019-04-11 18:00:00 16.4 12 Noroeste 23 Noroeste 0 -- -- 25
2019-04-11 17:00:00 17.5 10 Norte 23 Noroeste 0 -- -- 21
2019-04-11 16:00:00 18.1 5 Noroeste 19 Nordeste 0 -- -- 20
2019-04-11 15:00:00 16.9 8 Noroeste 24 Norte 0 -- -- 17
2019-04-11 14:00:00 16.5 7 Norte 17 Nordeste 0 -- -- 21
2019-04-11 13:00:00 16.2 4 Oeste 15 Noroeste 0 -- -- 26
2019-04-11 12:00:00 13.1 2 Oeste 6 Oeste 0 -- -- 37
2019-04-11 11:00:00 9.5 0 Calma 5 Noroeste 0 -- -- 63
2019-04-11 10:00:00 7.2 0 Calma 5 Norte 0 -- -- 65
2019-04-11 09:00:00 3.1 3 Norte 7 Norte 0 -- -- 82
2019-04-11 08:00:00 1.2 0 Calma 8 Este 0 -- -- 81
2019-04-11 07:00:00 1.3 2 Sudeste 5 Nordeste 0 -- -- 80
2019-04-11 06:00:00 2.6 0 Calma 8 Este 0 -- -- 74
2019-04-11 05:00:00 2.9 0 Calma 9 Norte 0 -- -- 74
2019-04-11 04:00:00 4.1 4 Nordeste 9 Este 0 -- -- 67
2019-04-11 03:00:00 4.4 3 Norte 6 Este 0 -- -- 65
2019-04-11 02:00:00 5.2 3 Nordeste 8 Nordeste 0 -- -- 62
2019-04-11 01:00:00 6.9 8 Nordeste 13 Norte 0 -- -- 55
2019-04-11 00:00:00 7.4 3 Norte 10 Oeste 0 -- -- 53
2019-04-10 23:00:00 8.2 6 Este 11 Este 0 -- -- 49
2019-04-10 22:00:00 9.7 4 Norte 15 Este 0 -- -- 44
2019-04-10 21:00:00 11.2 6 Nordeste 15 Norte 0 -- -- 41
2019-04-10 20:00:00 13.6 5 Norte 13 Oeste 0 -- -- 39
2019-04-10 19:00:00 15.1 8 Oeste 23 Oeste 0 -- -- 39
2019-04-10 18:00:00 14.4 9 Sudoeste 26 Sur 0 -- -- 42
2019-04-10 17:00:00 14.5 12 Sudoeste 32 Sudoeste 0 -- -- 42
2019-04-10 16:00:00 13.4 17 Sudoeste 32 Sudoeste 0 -- -- 45
2019-04-10 15:00:00 14.4 6 Sudoeste 22 Noroeste 0 -- -- 41
2019-04-10 14:00:00 15.6 2 Oeste 10 Oeste 0 -- -- 43
2019-04-10 13:00:00 13.2 2 Noroeste 9 Noroeste 0 -- -- 58
2019-04-10 12:00:00 9.2 3 Oeste 9 Oeste 0 -- -- 79
2019-04-10 11:00:00 6.7 4 Sudoeste 9 Oeste 0 -- -- 88
2019-04-10 10:00:00 5.6 2 Oeste 5 Oeste 0 -- -- 90
2019-04-10 09:00:00 5.3 3 Sudoeste 4 Oeste 0 -- -- 91
2019-04-10 08:00:00 5.2 2 Sudoeste 3 Sudoeste 0 -- -- 90
2019-04-10 07:00:00 5.2 0 Calma 6 Este 0.2 -- -- 90
2019-04-10 06:00:00 5.2 4 Este 6 Este 0 -- -- 89
2019-04-10 05:00:00 5.6 0 Calma 6 Norte 0 -- -- 89
2019-04-10 04:00:00 5.7 2 Nordeste 5 Este 0 -- -- 87
2019-04-10 03:00:00 6.6 3 Este 6 Este 0 -- -- 88
2019-04-10 02:00:00 6.9 2 Sudeste 9 Noroeste 0 -- -- 88
2019-04-10 01:00:00 7.2 3 Noroeste 7 Este 0 -- -- 86
2019-04-10 00:00:00 7.6 3 Sudeste 6 Sudeste 1.2 -- -- 86
2019-04-09 23:00:00 7.8 3 Nordeste 12 Este 0.2 -- -- 85
2019-04-09 22:00:00 7.6 8 Este 13 Norte 1.2 -- -- 83
2019-04-09 21:00:00 8.3 9 Norte 28 Este 1 -- -- 74
2019-04-09 20:00:00 8.3 14 Sudeste 24 Sudeste 1.8 -- -- 72
2019-04-09 19:00:00 10 8 Este 21 Este 0.2 -- -- 59
2019-04-09 18:00:00 12.3 8 Nordeste 27 Este 0 -- -- 41
2019-04-09 17:00:00 13.7 12 Sudeste 31 Nordeste 0 -- -- 38
2019-04-09 16:00:00 14.3 18 Nordeste 34 Norte 0 -- -- 34
2019-04-09 15:00:00 17.8 13 Oeste 40 Oeste 0 -- -- 32
2019-04-09 14:00:00 18.9 20 Oeste 32 Sudoeste 0 -- -- 30
2019-04-09 13:00:00 17.9 9 Sudoeste 18 Oeste 0 -- -- 33
2019-04-09 12:00:00 16 5 Oeste 17 Oeste 0 -- -- 40
2019-04-09 11:00:00 14.9 3 Nordeste 9 Nordeste 0 -- -- 45
2019-04-09 10:00:00 12.4 0 Calma 6 Oeste 0 -- -- 56
2019-04-09 09:00:00 8.7 3 Nordeste 9 Este 0 -- -- 72
2019-04-09 08:00:00 7.8 0 Calma 8 Sudeste 0 -- -- 77
2019-04-09 07:00:00 7.3 3 Sudeste 8 Sudeste 0 -- -- 78
2019-04-09 06:00:00 7.6 3 Sur 8 Norte 0 -- -- 76
2019-04-09 05:00:00 8.6 3 Sudoeste 15 Sur 0 -- -- 70
2019-04-09 04:00:00 9 9 Sudeste 19 Sudeste -- -- -- 69
2019-04-09 03:00:00 8.8 5 Norte 8 Nordeste 0 -- -- 64
2019-04-09 02:00:00 9.1 3 Nordeste 12 Sudeste 0 -- -- 61
2019-04-09 01:00:00 9.7 4 Este 11 Oeste 0 -- -- 58
2019-04-09 00:00:00 10 4 Norte 8 Este 0 -- -- 58
2019-04-08 23:00:00 11.5 3 Este 11 Sudeste 0 -- -- 51
2019-04-08 22:00:00 12.4 3 Este 8 Sudeste 0 -- -- 53
2019-04-08 21:00:00 13.6 3 Sudeste 21 Sur 0 -- -- 49
2019-04-08 20:00:00 16 3 Sur 25 Oeste 0 -- -- 39
2019-04-08 19:00:00 18.9 10 Oeste 24 Sudoeste 0 -- -- 33
2019-04-08 18:00:00 19.6 15 Oeste 30 Oeste 0 -- -- 33
2019-04-08 17:00:00 18.9 17 Oeste 32 Oeste 0 -- -- 35
2019-04-08 16:00:00 17.6 14 Oeste 24 Oeste 0 -- -- 37
2019-04-08 15:00:00 17.8 6 Sudoeste 15 Sudoeste 0 -- -- 35
2019-04-08 14:00:00 16.4 6 Sur 12 Sur 0 -- -- 39
2019-04-08 13:00:00 14.9 4 Noroeste 13 Sudoeste 0 -- -- 41
2019-04-08 12:00:00 14 4 Oeste 10 Oeste 0 -- -- 46
2019-04-08 11:00:00 10.3 4 Noroeste 8 Oeste 0 -- -- 61
2019-04-08 10:00:00 7.2 3 Oeste 10 Sur 0 -- -- 76
2019-04-08 09:00:00 4.5 3 Oeste 5 Oeste 0 -- -- 88
2019-04-08 08:00:00 3.8 0 Calma 5 Norte 0 -- -- 87
2019-04-08 07:00:00 4 0 Calma 3 Sudoeste 0 -- -- 87
2019-04-08 06:00:00 4.1 0 Calma 5 Sudeste 0 -- -- 86
2019-04-08 05:00:00 4 2 Norte 5 Sudeste 0 -- -- 87
2019-04-08 04:00:00 3.3 0 Calma 5 Este 0 -- -- 83
2019-04-08 03:00:00 4.5 0 Calma 4 Este 0 -- -- 81
2019-04-08 02:00:00 5.2 2 Norte 5 Este 0 -- -- 78
2019-04-08 01:00:00 5.7 0 Calma 5 Este 0 -- -- 75
2019-04-08 00:00:00 7.1 2 Sudeste 6 Este 0 -- -- 68
2019-04-07 23:00:00 8.9 3 Noroeste 11 Norte 0 -- -- 59
2019-04-07 22:00:00 9.8 7 Sudoeste 18 Sudoeste 0 -- -- 53
2019-04-07 21:00:00 10.4 7 Sudoeste 25 Sudoeste 0 -- -- 50
2019-04-07 20:00:00 11.9 12 Sudoeste 28 Sur 0 -- -- 43
2019-04-07 19:00:00 13.6 20 Sudoeste 33 Sudoeste 0 -- -- 33
2019-04-07 18:00:00 13.2 4 Noroeste 27 Nordeste 0 -- -- 38
2019-04-07 17:00:00 15.3 2 Nordeste 12 Sudoeste 0 -- -- 33
2019-04-07 16:00:00 15.8 5 Oeste 22 Noroeste 0 -- -- 32
2019-04-07 15:00:00 14.4 7 Sudoeste 18 Sur 0 -- -- 36
2019-04-07 14:00:00 15.1 4 Noroeste 13 Sudeste 0 -- -- 36
2019-04-07 13:00:00 13.3 5 Sur 9 Sudoeste 0 -- -- 46
2019-04-07 12:00:00 10.6 4 Oeste 11 Oeste 0 -- -- 68
2019-04-07 11:00:00 8.3 6 Noroeste 10 Norte 0 -- -- 76
2019-04-07 10:00:00 6.4 6 Noroeste 11 Noroeste 0 -- -- 82
2019-04-07 09:00:00 3.3 0 Calma 8 Sudeste 0 -- -- 93
2019-04-07 08:00:00 3 5 Sudeste 9 Sudeste 0 -- -- 91
2019-04-07 07:00:00 3 2 Este 6 Sudeste 0 -- -- 92
2019-04-07 06:00:00 3 2 Oeste 9 Norte 0 -- -- 90
2019-04-07 05:00:00 3 0 Calma 7 Este 0 -- -- 87
2019-04-07 04:00:00 4.2 2 Norte 6 Sudeste 0 -- -- 86
2019-04-07 03:00:00 4.9 0 Calma 6 Sudeste 0 -- -- 88
2019-04-07 02:00:00 4.6 3 Sudeste 5 Sudeste 0 -- -- 87
2019-04-07 01:00:00 4.7 2 Nordeste 8 Norte 0.6 -- -- 85
2019-04-07 00:00:00 5.1 4 Nordeste 10 Sur 2 -- -- 84
2019-04-06 23:00:00 5.3 3 Sur 13 Sudeste 0 -- -- 84
2019-04-06 22:00:00 5.4 9 Sudeste 23 Este 1.4 -- -- 82
2019-04-06 21:00:00 6 6 Norte 15 Nordeste 0 -- -- 74
2019-04-06 20:00:00 6.9 8 Nordeste 21 Norte 0.6 -- -- 70
2019-04-06 19:00:00 9.7 3 Este 23 Este 0 -- -- 57
2019-04-06 18:00:00 9.9 10 Sudeste 21 Este 0.4 -- -- 58
2019-04-06 17:00:00 10.2 2 Oeste 17 Nordeste 0 -- -- 51
2019-04-06 16:00:00 9.9 10 Nordeste 28 Oeste 0 -- -- 56
2019-04-06 15:00:00 11.5 7 Noroeste 23 Oeste 0 -- -- 46
2019-04-06 14:00:00 9.1 9 Sudoeste 24 Sudoeste 0 -- -- 63
2019-04-06 13:00:00 8.1 10 Sur 22 Sudoeste 0 -- -- 74
2019-04-06 12:00:00 6 5 Sur 20 Sudoeste 0.2 -- -- 86
2019-04-06 11:00:00 5.1 6 Sudeste 14 Sur 1.2 -- -- 83
2019-04-06 10:00:00 4.9 8 Sudoeste 21 Sudoeste 0.4 -- -- 81
2019-04-06 09:00:00 4.7 8 Sur 19 Sudoeste 0.2 -- -- 84
2019-04-06 08:00:00 4.5 4 Sudoeste 17 Sudoeste 0 -- -- 86
2019-04-06 07:00:00 4.7 6 Sudoeste 13 Sudoeste 0.2 -- -- 86
2019-04-06 06:00:00 4.8 0 Calma 9 Nordeste 0.2 -- -- 87
2019-04-06 05:00:00 4.7 2 Sudeste 10 Este 0 -- -- 85
2019-04-06 04:00:00 4.6 4 Este 18 Sur 3.8 -- -- 84
2019-04-06 03:00:00 6.1 0 Calma 5 Nordeste 2.6 -- -- 86
2019-04-06 02:00:00 6.2 2 Norte 10 Norte 0.8 -- -- 85
2019-04-06 01:00:00 6.5 3 Norte 7 Oeste 0.6 -- -- 84
2019-04-06 00:00:00 7 2 Norte 6 Norte 1.6 -- -- 84
2019-04-05 23:00:00 7.1 0 Calma 11 Nordeste 0.8 -- -- 83
2019-04-05 22:00:00 7.4 3 Nordeste 15 Nordeste 1 -- -- 82
2019-04-05 21:00:00 7.9 6 Nordeste 42 Sudoeste 0.8 -- -- 73
2019-04-05 20:00:00 9.5 9 Sudeste 26 Sur 0.2 -- -- 65
2019-04-05 19:00:00 11.2 12 Este 29 Este 0 -- -- 52
2019-04-05 18:00:00 12.2 15 Este 26 Este 0 -- -- 44
2019-04-05 17:00:00 13.2 6 Oeste 12 Oeste 0 -- -- 42
2019-04-05 16:00:00 13.1 6 Sudoeste 19 Noroeste 0.2 -- -- 43
2019-04-05 15:00:00 12.9 11 Oeste 19 Oeste 0 -- -- 45
2019-04-05 14:00:00 10.2 3 Sudoeste 13 Oeste 0 -- -- 52
2019-04-05 13:00:00 8.3 4 Noroeste 8 Oeste 0 -- -- 60
2019-04-05 12:00:00 5.1 2 Oeste 6 Oeste 0.2 -- -- 75
2019-04-05 11:00:00 4.4 0 Calma 5 Sudoeste 0.2 -- -- 69
2019-04-05 10:00:00 3.2 2 Sur 5 Sur 0 -- -- 67
2019-04-05 09:00:00 2.4 2 Sudoeste 4 Oeste 0 -- -- 63
2019-04-05 08:00:00 2 0 Calma 8 Norte 0 -- -- 59
2019-04-05 07:00:00 1.3 3 Este 7 Este 0 -- -- 57
2019-04-05 06:00:00 1.5 4 Sudeste 8 Sudeste 0 -- -- 57
2019-04-05 05:00:00 1.7 0 Calma 6 Oeste 0 -- -- 55
2019-04-05 04:00:00 2.3 0 Calma 10 Este 0 -- -- 50
2019-04-05 03:00:00 1.8 3 Nordeste 5 Este 0 -- -- 50
2019-04-05 02:00:00 2.4 2 Este 6 Este 0 -- -- 48
2019-04-05 01:00:00 3.3 0 Calma 10 Este 0 -- -- 45
2019-04-05 00:00:00 4.2 4 Este 7 Este 0 -- -- 40
2019-04-04 23:00:00 5.6 3 Nordeste 9 Este 0 -- -- 37
2019-04-04 22:00:00 7.7 3 Este 21 Sudoeste 0 -- -- 29
2019-04-04 21:00:00 9.5 14 Sudoeste 27 Sudoeste 0 -- -- 25
2019-04-04 20:00:00 11.3 10 Sudoeste 21 Oeste 0 -- -- 23
2019-04-04 19:00:00 14.7 14 Oeste 28 Oeste 0 -- -- 21
2019-04-04 18:00:00 15.4 12 Sudoeste 29 Sudeste 0 -- -- 20
2019-04-04 17:00:00 14.6 11 Sudoeste 26 Oeste 0 -- -- 18
2019-04-04 16:00:00 14.9 11 Sudoeste 27 Oeste 0 -- -- 19
2019-04-04 15:00:00 14.3 9 Sudoeste 22 Sudoeste 0 -- -- 20
2019-04-04 14:00:00 13.3 9 Sur 26 Sudoeste 0 -- -- 21
2019-04-04 13:00:00 12.1 14 Sudoeste 24 Oeste 0 -- -- 27
2019-04-04 12:00:00 10 11 Sudoeste 20 Oeste 0 -- -- 33
2019-04-04 11:00:00 7.4 5 Oeste 12 Oeste 0 -- -- 40
2019-04-04 10:00:00 3.9 2 Noroeste 13 Norte 0 -- -- 56
2019-04-04 09:00:00 0.3 0 Calma 6 Este 0 -- -- 71
2019-04-04 08:00:00 -1.9 0 Calma 4 Este 0 -- -- 73
2019-04-04 07:00:00 -1 0 Calma 9 Sudeste 0 -- -- 66
2019-04-04 06:00:00 0.2 5 Este 9 Este 0 -- -- 61
2019-04-04 05:00:00 0.6 3 Este 12 Oeste 0 -- -- 59
2019-04-04 04:00:00 1.8 4 Norte 14 Sudoeste 0 -- -- 54
2019-04-04 03:00:00 2.3 4 Sudoeste 13 Norte 0 -- -- 53
2019-04-04 02:00:00 3.9 6 Norte 22 Oeste 0 -- -- 46
2019-04-04 01:00:00 4.9 4 Sudoeste 18 Noroeste 0 -- -- 43
2019-04-04 00:00:00 5.4 6 Este 15 Sur 0 -- -- 51
2019-04-03 23:00:00 6.1 4 Sudeste 16 Este 0 -- -- 55
2019-04-03 22:00:00 6.7 5 Este 28 Sudoeste 0 -- -- 59
2019-04-03 21:00:00 7.6 16 Sudoeste 37 Sudoeste 0 -- -- 56
2019-04-03 20:00:00 8.3 14 Sur 32 Sudoeste 0 -- -- 59
2019-04-03 19:00:00 9.4 16 Sur 33 Sudoeste 0 -- -- 54
2019-04-03 18:00:00 9.7 11 Sur 22 Sur 0.2 -- -- 54
2019-04-03 17:00:00 10.2 8 Sudoeste 24 Sudoeste 0 -- -- 56
2019-04-03 16:00:00 11.1 12 Sudoeste 24 Sur 0 -- -- 49
2019-04-03 15:00:00 11.6 9 Sudoeste 27 Sudoeste 0 -- -- 52
2019-04-03 14:00:00 12.1 13 Sudoeste 26 Sudoeste 0 -- -- 50
2019-04-03 13:00:00 12.4 12 Sudoeste 26 Oeste 0 -- -- 48
2019-04-03 12:00:00 11.9 10 Sudoeste 23 Sur 0 -- -- 56
2019-04-03 11:00:00 11.6 11 Sudoeste 26 Sudoeste 0 -- -- 56
2019-04-03 10:00:00 10.7 11 Sur 24 Sudoeste 0 -- -- 64
2019-04-03 09:00:00 10.2 5 Oeste 19 Oeste 0 -- -- 68
2019-04-03 08:00:00 9.5 9 Oeste 29 Sudoeste 0 -- -- 71
2019-04-03 07:00:00 8.5 3 Sudeste 9 Sudeste 0 -- -- 74
2019-04-03 06:00:00 9.1 5 Norte 17 Oeste 0 -- -- 72
2019-04-03 05:00:00 9.6 5 Sur 10 Sudoeste 0 -- -- 69
2019-04-03 04:00:00 9 4 Sudeste 8 Nordeste 0 -- -- 63
2019-04-03 03:00:00 9.6 4 Norte 12 Sudeste 0 -- -- 59
2019-04-03 02:00:00 9.5 4 Este 8 Nordeste 0 -- -- 60
2019-04-03 01:00:00 9.7 2 Este 5 Sudoeste 0 -- -- 55
2019-04-03 00:00:00 10.4 3 Este 9 Sur 0 -- -- 51
2019-04-02 23:00:00 11.9 3 Sudeste 12 Sur 0 -- -- 46
2019-04-02 22:00:00 13.5 8 Sudeste 18 Sudoeste 0 -- -- 41
2019-04-02 21:00:00 14.2 4 Sur 20 Sudeste 0 -- -- 41
2019-04-02 20:00:00 15.5 5 Sudeste 19 Sur 0 -- -- 38
2019-04-02 19:00:00 15.6 13 Sur 42 Noroeste 0 -- -- 38
2019-04-02 18:00:00 21 17 Oeste 33 Oeste 0 -- -- 23
2019-04-02 17:00:00 20.5 11 Oeste 23 Noroeste 0 -- -- 27
2019-04-02 16:00:00 16.9 16 Noroeste 32 Oeste 0 -- -- 36
2019-04-02 15:00:00 15.4 3 Sudoeste 36 Oeste 0.4 -- -- 43
2019-04-02 14:00:00 17.6 9 Sur 23 Oeste 0 -- -- 36
2019-04-02 13:00:00 16.9 8 Sudoeste 22 Sur 0 -- -- 35
2019-04-02 12:00:00 16.8 3 Norte 8 Sudoeste 0 -- -- 44
2019-04-02 11:00:00 13.8 4 Noroeste 8 Oeste 0 -- -- 53
2019-04-02 10:00:00 10.3 0 Calma 3 Oeste 0 -- -- 64
2019-04-02 09:00:00 7.5 0 Calma 5 Sudeste 0 -- -- 73
2019-04-02 08:00:00 6.7 0 Calma 3 Este 0 -- -- 74
2019-04-02 07:00:00 7.3 0 Calma 3 Noroeste 0 -- -- 70
2019-04-02 06:00:00 8.1 2 Sudeste 6 Sudeste 0 -- -- 67
2019-04-02 05:00:00 7.4 0 Calma 3 Norte 0 -- -- 69
2019-04-02 04:00:00 8.3 3 Norte 4 Norte 0 -- -- 65
2019-04-02 03:00:00 9.1 0 Calma 4 Sudeste 0 -- -- 61
2019-04-02 02:00:00 9.2 0 Calma 4 Norte 0 -- -- 60
2019-04-02 01:00:00 10.2 0 Calma 4 Sudoeste 0 -- -- 56
2019-04-02 00:00:00 11.5 3 Sudeste 8 Sur 0 -- -- 52
2019-04-01 23:00:00 11.8 2 Sudeste 12 Sudeste 0 -- -- 50
2019-04-01 22:00:00 11.4 3 Sudeste 8 Este 0 -- -- 50
2019-04-01 21:00:00 13 5 Oeste 13 Sudoeste 0 -- -- 45
2019-04-01 20:00:00 14.9 9 Sudoeste 26 Sudoeste 0 -- -- 37
2019-04-01 19:00:00 16.8 19 Sudoeste 31 Sudoeste 0 -- -- 34
2019-04-01 18:00:00 18 17 Sudoeste 34 Sudoeste 0 -- -- 32
2019-04-01 17:00:00 19 23 Sudoeste 38 Sudoeste 0 -- -- 30
2019-04-01 16:00:00 19.6 22 Sudoeste 36 Sudoeste 0 -- -- 31
2019-04-01 15:00:00 19.7 18 Sudoeste 28 Sudoeste 0 -- -- 31
2019-04-01 14:00:00 18 14 Sudoeste 27 Sudoeste 0 -- -- 39
2019-04-01 13:00:00 15.5 15 Sudoeste 27 Oeste 0 -- -- 41
2019-04-01 12:00:00 14.7 3 Oeste 10 Sudoeste 0 -- -- 45
2019-04-01 11:00:00 13.2 4 Sudoeste 8 Sudoeste -- -- -- 54
2019-04-01 10:00:00 9.7 0 Calma 3 Oeste 0 -- -- 69
2019-04-01 09:00:00 8.3 0 Calma 4 Noroeste 0 -- -- 72
2019-04-01 08:00:00 7.6 3 Este 4 Este 0 -- -- 71
2019-04-01 07:00:00 8 0 Calma 3 Norte 0 -- -- 68
2019-04-01 06:00:00 8.1 0 Calma 2 Este 0 -- -- 66
2019-04-01 05:00:00 8.8 0 Calma 5 Norte 0 -- -- 64
2019-04-01 04:00:00 9.4 0 Calma 5 Este 0 -- -- 63
2019-04-01 03:00:00 9.2 3 Este 5 Este 0 -- -- 62
2019-04-01 02:00:00 9.3 2 Este 5 Sudoeste 0 -- -- 63
2019-04-01 01:00:00 9.8 3 Este 5 Oeste 0 -- -- 62
2019-04-01 00:00:00 10.4 0 Calma 5 Este 0 -- -- 57
2019-03-31 23:00:00 11 2 Este 17 Este 0 -- -- 56
2019-03-31 22:00:00 12 9 Este 15 Este 0 -- -- 54
2019-03-31 21:00:00 11.9 3 Nordeste 7 Este 0 -- -- 53
2019-03-31 20:00:00 13.5 4 Norte 19 Sudoeste 0 -- -- 48
2019-03-31 19:00:00 14.3 13 Sudoeste 26 Sudoeste 0 -- -- 46
2019-03-31 18:00:00 15.5 12 Sudoeste 24 Sudoeste 0 -- -- 41
2019-03-31 17:00:00 15 10 Sudoeste 27 Sudoeste 0 -- -- 43
2019-03-31 16:00:00 14.9 13 Sudoeste 28 Oeste 0 -- -- 41
2019-03-31 15:00:00 14.6 12 Sudoeste 22 Sudoeste 0 -- -- 42
2019-03-31 14:00:00 14 4 Oeste 10 Oeste 0 -- -- 45
2019-03-31 13:00:00 11.9 6 Sudoeste 11 Sur 0 -- -- 51
2019-03-31 12:00:00 10 4 Sudeste 9 Sudeste 0 -- -- 54
2019-03-31 11:00:00 7.7 4 Oeste 8 Oeste 0 -- -- 66
2019-03-31 10:00:00 5 0 Calma 5 Sur 0 -- -- 78
2019-03-31 09:00:00 2.4 0 Calma 4 Sudoeste 0 -- -- 85
2019-03-31 08:00:00 1.9 2 Este 4 Este 0 -- -- 86
2019-03-31 07:00:00 2 0 Calma 3 Sudeste 0 -- -- 84
2019-03-31 06:00:00 2.4 0 Calma 4 Este 0 -- -- 82
2019-03-31 05:00:00 2.9 2 Este 7 Norte 0 -- -- 78
2019-03-31 03:00:00 4.6 2 Norte 8 Norte 0 -- -- 73
2019-03-31 01:00:00 6 0 Calma 6 Este 0 -- -- 71
2019-03-31 00:00:00 7.1 4 Este 8 Este 0 -- -- 66
2019-03-30 23:00:00 8.8 4 Sudeste 20 Sur 0 -- -- 59
2019-03-30 22:00:00 10.2 9 Sur 31 Sudoeste 0 -- -- 55
2019-03-30 21:00:00 11.3 16 Sudoeste 35 Sudoeste 0 -- -- 51
2019-03-30 20:00:00 12.7 15 Sudoeste 35 Sudoeste 0 -- -- 46
2019-03-30 19:00:00 15.5 5 Sudeste 15 Sudoeste 0 -- -- 27
2019-03-30 18:00:00 17.6 9 Sur 22 Oeste 0 -- -- 23
2019-03-30 17:00:00 19 7 Sudoeste 27 Oeste 0 -- -- 21
2019-03-30 16:00:00 19 6 Sur 27 Oeste 0 -- -- 23
2019-03-30 15:00:00 19.3 15 Sudoeste 25 Sudoeste 0 -- -- 25
2019-03-30 14:00:00 18.5 16 Sudoeste 29 Oeste 0 -- -- 28
2019-03-30 13:00:00 17 17 Sudoeste 27 Oeste 0 -- -- 33
2019-03-30 12:00:00 15.4 5 Oeste 10 Oeste 0 -- -- 34
2019-03-30 11:00:00 12.2 2 Oeste 8 Oeste 0 -- -- 40
2019-03-30 10:00:00 8.8 3 Noroeste 6 Noroeste 0 -- -- 54
2019-03-30 09:00:00 5.5 2 Noroeste 4 Noroeste 0 -- -- 65
2019-03-30 08:00:00 2.2 0 Calma 0 Calma 0 -- -- 78
2019-03-30 07:00:00 1.2 0 Calma 2 Noroeste 0 -- -- 77
2019-03-30 06:00:00 1.5 0 Calma 4 Sudeste 0 -- -- 75
2019-03-30 05:00:00 1.8 0 Calma 6 Nordeste 0 -- -- 73
2019-03-30 04:00:00 2.9 3 Norte 4 Norte 0 -- -- 68
2019-03-30 03:00:00 3.3 0 Calma 4 Norte 0 -- -- 67
2019-03-30 02:00:00 4.8 0 Calma 7 Este 0 -- -- 62
2019-03-30 01:00:00 5.2 0 Calma 5 Norte 0 -- -- 59
2019-03-30 00:00:00 6.6 0 Calma 8 Este 0 -- -- 53
2019-03-29 23:00:00 7.6 2 Nordeste 10 Sur 0 -- -- 52
2019-03-29 22:00:00 9.6 5 Sudeste 18 Sur 0 -- -- 46
2019-03-29 21:00:00 10.8 7 Sur 21 Sudoeste 0 -- -- 41
2019-03-29 20:00:00 12 5 Sur 24 Sudoeste 0 -- -- 38
2019-03-29 19:00:00 14.2 4 Sur 17 Sudoeste 0 -- -- 33
2019-03-29 18:00:00 15.9 10 Sudoeste 21 Sudoeste 0 -- -- 31
2019-03-29 17:00:00 16.6 7 Sur 14 Sur 0 -- -- 25
2019-03-29 16:00:00 17.9 7 Nordeste 19 Sur 0 -- -- 23
2019-03-29 15:00:00 18.6 13 Sudoeste 24 Sudoeste 0 -- -- 26
2019-03-29 14:00:00 15.8 2 Oeste 17 Sudoeste 0 -- -- 27
2019-03-29 13:00:00 15.9 12 Sudoeste 22 Oeste 0 -- -- 28
2019-03-29 12:00:00 15.2 4 Oeste 9 Sudoeste 0 -- -- 30
2019-03-29 11:00:00 12.1 2 Oeste 10 Oeste 0 -- -- 41
2019-03-29 10:00:00 8.2 0 Calma 4 Oeste 0 -- -- 53
2019-03-29 09:00:00 5.9 2 Oeste 5 Norte 0 -- -- 61
2019-03-29 08:00:00 3.9 0 Calma 5 Norte 0 -- -- 68
2019-03-29 07:00:00 3.4 0 Calma 5 Este 0 -- -- 65
2019-03-29 06:00:00 3.2 2 Norte 10 Este 0 -- -- 64
2019-03-29 05:00:00 3.3 5 Sudeste 12 Sudeste 0 -- -- 64
2019-03-29 04:00:00 4 3 Norte 8 Norte 0 -- -- 58
2019-03-29 03:00:00 5.4 4 Este 8 Este 0 -- -- 54
2019-03-29 02:00:00 5.4 2 Este 7 Nordeste 0 -- -- 54
2019-03-29 01:00:00 6.7 2 Norte 8 Norte 0 -- -- 49
2019-03-29 00:00:00 7.7 3 Norte 9 Nordeste 0 -- -- 44
2019-03-28 23:00:00 9.5 7 Oeste 22 Sur 0 -- -- 38
2019-03-28 22:00:00 10.9 11 Sur 33 Sudoeste 0 -- -- 34
2019-03-28 21:00:00 11.6 13 Sudoeste 27 Sur 0 -- -- 34
2019-03-28 20:00:00 13.3 6 Sur 28 Sudoeste 0 -- -- 30
2019-03-28 19:00:00 14.7 17 Sudoeste 33 Sudoeste 0 -- -- 28
2019-03-28 18:00:00 16.3 20 Sudoeste 35 Sudoeste 0 -- -- 26
2019-03-28 17:00:00 17.5 20 Sudoeste 36 Sur 0 -- -- 24
2019-03-28 16:00:00 17.7 21 Sudoeste 39 Sudoeste 0 -- -- 25
2019-03-28 15:00:00 17.8 22 Sudoeste 36 Sudoeste 0 -- -- 24
2019-03-28 14:00:00 17.7 19 Sudoeste 34 Sudoeste 0 -- -- 25
2019-03-28 13:00:00 16.8 18 Sudoeste 32 Sudoeste 0 -- -- 27
2019-03-28 12:00:00 15.4 19 Sudoeste 28 Sudoeste 0 -- -- 27
2019-03-28 11:00:00 13.1 4 Sudoeste 12 Oeste 0 -- -- 31
2019-03-28 10:00:00 9.3 2 Oeste 5 Sudoeste 0 -- -- 41
2019-03-28 09:00:00 5.7 2 Oeste 4 Oeste 0 -- -- 53
2019-03-28 08:00:00 1.9 0 Calma 2 Este 0 -- -- 64
2019-03-28 07:00:00 0.5 0 Calma 2 Este 0 -- -- 65
2019-03-28 06:00:00 2 0 Calma 3 Nordeste 0 -- -- 60
2019-03-28 05:00:00 2.5 0 Calma 2 Nordeste 0 -- -- 59
2019-03-28 04:00:00 2.7 0 Calma 3 Este 0 -- -- 56
2019-03-28 03:00:00 3.5 0 Calma 5 Sudeste 0 -- -- 55
2019-03-28 02:00:00 4.6 0 Calma 5 Norte 0 -- -- 52
2019-03-28 01:00:00 6.2 0 Calma 8 Este 0 -- -- 46
2019-03-28 00:00:00 7.2 2 Sudeste 7 Sudeste 0 -- -- 43
2019-03-27 23:00:00 8.5 4 Sur 14 Sudoeste 0 -- -- 38
2019-03-27 22:00:00 9.3 4 Este 14 Este 0 -- -- 37
2019-03-27 21:00:00 10.5 4 Norte 14 Sudeste 0 -- -- 34
2019-03-27 20:00:00 13.5 9 Sur 33 Sudoeste 0 -- -- 26
2019-03-27 19:00:00 15 20 Sudoeste 37 Sudoeste 0 -- -- 24
2019-03-27 18:00:00 17.4 17 Sudoeste 31 Sudoeste 0 -- -- 23
2019-03-27 17:00:00 19 14 Sudoeste 32 Sudoeste 0 -- -- 22
2019-03-27 16:00:00 18.8 17 Sudoeste 41 Sudoeste 0 -- -- 23
2019-03-27 15:00:00 18.3 22 Sudoeste 39 Sur 0 -- -- 25
2019-03-27 14:00:00 18.3 19 Sudoeste 32 Sudoeste 0 -- -- 26
2019-03-27 13:00:00 18.6 15 Sudoeste 26 Sudoeste 0 -- -- 19
2019-03-27 12:00:00 16.3 5 Sur 14 Sudoeste 0 -- -- 23
2019-03-27 11:00:00 11.8 3 Oeste 8 Noroeste 0 -- -- 23
2019-03-27 10:00:00 7.6 3 Oeste 7 Oeste 0 -- -- 34
2019-03-27 09:00:00 4.5 2 Noroeste 5 Oeste 0 -- -- 42
2019-03-27 08:00:00 1.2 2 Norte 9 Sudeste 0 -- -- 51
2019-03-27 07:00:00 -0.6 2 Oeste 5 Norte 0 -- -- 54
2019-03-27 06:00:00 -0.5 0 Calma 6 Norte 0 -- -- 54
2019-03-27 05:00:00 0.3 0 Calma 5 Norte 0 -- -- 53
2019-03-27 04:00:00 1.6 0 Calma 4 Este 0 -- -- 48
2019-03-27 03:00:00 3.5 0 Calma 5 Este 0 -- -- 45
2019-03-27 02:00:00 4.3 0 Calma 6 Sur 0 -- -- 40
2019-03-27 01:00:00 6.9 4 Sur 11 Sudoeste 0 -- -- 43
2019-03-27 00:00:00 8.1 3 Sur 13 Sur 0 -- -- 34